Overseas Anacortes — KCHV — position and weather

sailwx.info

Track history (hours):
 
Tides and Currents Weather Stations Pressure Air Temp Water Temp Dewpoint Dewpoint Depression Visibility Wind Speed Wind Dir Waves Ship Positions

Overseas Anacortes

Owner: ASC Leasing IX, Inc., Philadelphia, PA. More information available from US FCC via Universal Licensing System and Coast Guard Vessel Documentation Center.

Last reported at 2017-Sep-21 17:30 UTC. Time now 2017-Sep-21 17:42 UTC.
Position N 26°06' W 080°07'.

Length 182 m; draft 10.3 m.

Type: Tanker. MMSI: 366539000.

Date/timePositionNaut miles runAvg speedWind from/ knotsBaromVisibWave heightAir tempDewpointWater temp
2017-Sep-21 17:30N 26°06' W 080°07'0 0.0
2017-Sep-21 17:00N 26°06' W 080°07'0 0.0
2017-Sep-21 16:30N 26°06' W 080°07'0 0.0
2017-Sep-21 16:00N 26°06' W 080°07'0 0.0
2017-Sep-21 15:30N 26°06' W 080°07'0 0.0
2017-Sep-21 14:51N 26°06' W 080°07'0 0.0
2017-Sep-21 14:21N 26°06' W 080°07'0 0.0
2017-Sep-21 13:51N 26°06' W 080°07'0 0.0
2017-Sep-21 13:24N 26°06' W 080°07'0 0.0
2017-Sep-21 12:54N 26°06' W 080°07'0 0.0
2017-Sep-21 12:24N 26°06' W 080°07'0 0.0
2017-Sep-21 11:54N 26°06' W 080°07'0 0.0
2017-Sep-21 11:24N 26°06' W 080°07'0 0.0
2017-Sep-21 10:51N 26°06' W 080°07'0 0.0
2017-Sep-21 10:27N 26°06' W 080°07'0 0.0
2017-Sep-21 09:57N 26°06' W 080°07'0 0.0
2017-Sep-21 09:27N 26°06' W 080°07'0 0.0
2017-Sep-21 08:57N 26°06' W 080°07'0 0.0
2017-Sep-21 08:27N 26°06' W 080°07'0 0.0
2017-Sep-21 07:57N 26°06' W 080°07'0 0.0
2017-Sep-21 07:30N 26°06' W 080°07'0 0.0
2017-Sep-21 07:00N 26°06' W 080°07'0 0.0
2017-Sep-21 06:30N 26°06' W 080°07'0 0.0
2017-Sep-21 06:00N 26°06' W 080°07'0 0.0
2017-Sep-21 05:30N 26°06' W 080°07'0 0.0
2017-Sep-21 05:00N 26°06' W 080°07'0 0.0
2017-Sep-21 04:30N 26°06' W 080°07'0 0.0
2017-Sep-21 04:00N 26°06' W 080°07'0 0.0
2017-Sep-21 03:30N 26°06' W 080°07'0 0.0
2017-Sep-21 03:00N 26°06' W 080°07'0 0.0
2017-Sep-21 02:30N 26°06' W 080°07'0 0.0
2017-Sep-21 02:00N 26°06' W 080°07'0 0.0
2017-Sep-21 01:30N 26°06' W 080°07'0 0.0
2017-Sep-21 01:00N 26°06' W 080°07'0 0.0
2017-Sep-21 00:28N 26°06' W 080°07'1 2.5
2017-Sep-21 00:00N 26°06' W 080°06'3 7.0
2017-Sep-20 23:30N 26°04' W 080°03'1 2.1
2017-Sep-20 23:00N 26°03' W 080°02'1 1.4
2017-Sep-20 22:30N 26°02' W 080°02'1 1.9
2017-Sep-20 22:00N 26°02' W 080°02'1 2.3
2017-Sep-20 21:30N 26°00' W 080°01'1 2.7
2017-Sep-20 21:00N 26°02' W 080°01'1 2.0
2017-Sep-20 20:30N 26°03' W 080°01'1 2.1
2017-Sep-20 20:00N 26°02' W 080°01'1 2.2
2017-Sep-20 19:30N 26°01' W 080°02'0 0.9
2017-Sep-20 19:00N 26°00' W 080°02'3 5.6
2017-Sep-20 18:30N 26°02' W 079°59'0 0.6
2017-Sep-20 18:00N 26°02' W 079°59'0 1.0
2017-Sep-20 17:30N 26°02' W 079°59'0 0.8
2017-Sep-20 17:00N 26°01' W 079°60'0 0.7
2017-Sep-20 16:30N 26°01' W 080°00'0 0.5
2017-Sep-20 16:00N 26°01' W 080°00'0 0.6
2017-Sep-20 15:30N 26°01' W 080°00'1 2.4
2017-Sep-20 15:00N 25°60' W 080°00'1 1.1
2017-Sep-20 14:00N 25°59' W 080°01'0 0.9
2017-Sep-20 13:30N 25°59' W 080°01'0 0.7
2017-Sep-20 13:00N 25°59' W 080°01'0 0.6
2017-Sep-20 12:30N 25°59' W 080°02'0 0.8
2017-Sep-20 12:00N 25°59' W 080°01'2 4.7
2017-Sep-20 11:30N 25°57' W 079°60'1 1.1
2017-Sep-20 11:00N 25°57' W 080°00'1 1.0
2017-Sep-20 10:30N 25°57' W 080°01'1 1.2
2017-Sep-20 10:00N 25°58' W 080°01'1 1.4
2017-Sep-20 09:30N 25°59' W 080°01'1 1.4
2017-Sep-20 09:00N 25°59' W 080°00'2 4.4
2017-Sep-20 08:30N 25°57' W 080°00'3 5.1
2017-Sep-20 08:00N 25°54' W 079°60'1 1.1
2017-Sep-20 07:30N 25°55' W 080°00'1 1.0
2017-Sep-20 07:00N 25°55' W 080°01'1 1.3
2017-Sep-20 06:30N 25°56' W 080°01'1 1.5
2017-Sep-20 06:00N 25°57' W 080°01'1 1.2
2017-Sep-20 05:30N 25°57' W 080°02'1 1.0
2017-Sep-20 05:00N 25°58' W 080°02'0 0.5
2017-Sep-20 04:30N 25°58' W 080°02'1 1.6
2017-Sep-20 04:00N 25°59' W 080°02'1 1.6
2017-Sep-20 03:30N 25°59' W 080°02'1 1.4
2017-Sep-20 03:00N 26°00' W 080°02'1 1.3
2017-Sep-20 02:30N 26°01' W 080°02'1 1.3
2017-Sep-20 02:00N 26°01' W 080°02'0 0.7
2017-Sep-20 01:30N 26°01' W 080°02'2 3.6
2017-Sep-20 01:00N 25°59' W 080°02'2 3.7
2017-Sep-20 00:30N 25°57' W 080°02'2 3.5
2017-Sep-20 00:00N 25°56' W 080°02'1 1.1
2017-Sep-19 23:30N 25°55' W 080°02'0 1.0
2017-Sep-19 23:00N 25°55' W 080°02'1 1.0
2017-Sep-19 22:30N 25°56' W 080°01'0 1.0
2017-Sep-19 22:00N 25°56' W 080°01'0 0.8
2017-Sep-19 21:30N 25°57' W 080°01'1 1.7
2017-Sep-19 21:00N 25°56' W 080°01'2 4.6
2017-Sep-19 20:30N 25°54' W 080°02'1 1.3
2017-Sep-19 20:00N 25°54' W 080°01'1 1.3
2017-Sep-19 19:30N 25°55' W 080°01'1 1.3
2017-Sep-19 19:00N 25°56' W 080°01'1 1.2
2017-Sep-19 18:30N 25°56' W 080°01'0 0.9
2017-Sep-19 18:00N 25°57' W 080°01'0 0.2
2017-Sep-19 17:30N 25°57' W 080°01'1 2.4
2017-Sep-19 17:00N 25°56' W 080°02'3 6.6
2017-Sep-19 16:30N 25°53' W 080°03'1 1.2
2017-Sep-19 16:00N 25°52' W 080°02'0 0.6
2017-Sep-19 15:30N 25°53' W 080°02'0 0.6
2017-Sep-19 15:00N 25°53' W 080°02'1 1.2
2017-Sep-19 14:30N 25°53' W 080°02'1 1.2
2017-Sep-19 14:00N 25°54' W 080°02'1 1.2
2017-Sep-19 13:30N 25°55' W 080°02'1 1.2
2017-Sep-19 13:00N 25°55' W 080°02'1 1.5
2017-Sep-19 12:30N 25°56' W 080°02'0 0.3
2017-Sep-19 12:00N 25°56' W 080°02'0 0.5
2017-Sep-19 11:30N 25°56' W 080°02'0 0.6
2017-Sep-19 11:00N 25°56' W 080°01'0 0.4
2017-Sep-19 10:30N 25°56' W 080°01'1 1.9
2017-Sep-19 10:00N 25°56' W 080°02'1 1.1
2017-Sep-19 09:30N 25°56' W 080°03'0 0.9
2017-Sep-19 09:00N 25°56' W 080°02'1 1.0
2017-Sep-19 08:30N 25°55' W 080°02'1 1.0
2017-Sep-19 08:00N 25°55' W 080°01'0 0.9
2017-Sep-19 07:30N 25°55' W 080°01'0 0.7
2017-Sep-19 07:00N 25°55' W 080°02'3 6.2
2017-Sep-19 06:30N 25°58' W 080°02'2 4.0
2017-Sep-19 06:00N 26°00' W 080°02'0 0.7
2017-Sep-19 05:30N 25°60' W 080°02'0 0.9
2017-Sep-19 05:00N 25°59' W 080°02'0 0.8
2017-Sep-19 04:30N 25°59' W 080°02'0 0.7
2017-Sep-19 04:00N 25°59' W 080°02'1 1.1
2017-Sep-19 03:30N 25°58' W 080°02'1 1.7
2017-Sep-19 03:00N 25°57' W 080°01'1 2.3
2017-Sep-19 02:30N 25°56' W 080°01'0 0.1
2017-Sep-19 02:00N 25°56' W 080°01'0 0.2
2017-Sep-19 01:30N 25°56' W 080°01'0 0.3
2017-Sep-19 01:00N 25°56' W 080°02'0 0.5
2017-Sep-19 00:30N 25°56' W 080°02'1 1.2
2017-Sep-19 00:00N 25°56' W 080°02'0 0.4
2017-Sep-18 23:30N 25°56' W 080°03'1 1.0
2017-Sep-18 23:00N 25°55' W 080°03'1 1.0
2017-Sep-18 22:30N 25°55' W 080°03'1 1.1
2017-Sep-18 22:00N 25°54' W 080°02'1 1.3
2017-Sep-18 21:30N 25°54' W 080°02'3 5.3
2017-Sep-18 21:00N 25°56' W 079°60'0 0.5
2017-Sep-18 20:30N 25°56' W 080°00'1 1.2
2017-Sep-18 20:00N 25°56' W 080°01'0 0.7
2017-Sep-18 19:30N 25°56' W 080°01'510.6
2017-Sep-18 19:00N 25°53' W 079°56'815.4
2017-Sep-18 18:30N 25°45' W 079°55'816.0
2017-Sep-18 18:00N 25°37' W 079°56'816.3
2017-Sep-18 17:30N 25°29' W 079°57'916.2
2017-Sep-18 16:58N 25°21' W 079°58'4015.7
2017-Sep-18 14:27N 24°46' W 080°19'717.2
2017-Sep-18 14:01N 24°40' W 080°24'816.6
2017-Sep-18 13:31N 24°34' W 080°30'816.9
2017-Sep-18 13:01N 24°28' W 080°37'11616.5
2017-Sep-18 06:00N 24°06' W 082°42'21111.6 030 / 161013.010.8 28.824.8
2017-Sep-17 11:44N 27°37' W 082°40'311.2
2017-Sep-17 11:28N 27°39' W 082°37'511.3
2017-Sep-17 11:00N 27°43' W 082°33'510.9
2017-Sep-17 10:30N 27°47' W 082°30'510.3
2017-Sep-17 10:00N 27°52' W 082°27'3 6.5
2017-Sep-17 09:30N 27°55' W 082°27'0 0.5
2017-Sep-17 08:59N 27°55' W 082°27'0 0.0
2017-Sep-17 08:29N 27°55' W 082°27'0 0.0
2017-Sep-17 07:59N 27°55' W 082°27'0 0.0
2017-Sep-17 07:29N 27°55' W 082°27'0 0.0
2017-Sep-17 06:59N 27°55' W 082°27'0 0.0
2017-Sep-17 06:29N 27°55' W 082°27'0 0.0
2017-Sep-17 05:59N 27°55' W 082°27'0 0.0
2017-Sep-17 05:29N 27°55' W 082°27'0 0.0
2017-Sep-17 04:59N 27°55' W 082°27'0 0.0
2017-Sep-17 04:29N 27°55' W 082°27'0 0.0
2017-Sep-17 03:59N 27°55' W 082°27'0 0.0
2017-Sep-17 03:29N 27°55' W 082°27'0 0.0
2017-Sep-17 02:59N 27°55' W 082°27'0 0.0
2017-Sep-17 02:29N 27°55' W 082°27'0 0.0
2017-Sep-17 01:59N 27°55' W 082°27'0 0.0
2017-Sep-17 01:29N 27°55' W 082°27'0 0.0
2017-Sep-17 00:59N 27°55' W 082°27'0 0.0
2017-Sep-17 00:29N 27°55' W 082°27'0 0.0
2017-Sep-16 23:59N 27°55' W 082°27'0 0.0
2017-Sep-16 23:29N 27°55' W 082°27'0 0.0
2017-Sep-16 22:59N 27°55' W 082°27'0 0.0
2017-Sep-16 22:26N 27°55' W 082°27'0 0.0
2017-Sep-16 21:59N 27°55' W 082°27'0 0.0
2017-Sep-16 21:29N 27°55' W 082°27'0 0.0
2017-Sep-16 20:59N 27°55' W 082°27'0 0.0
2017-Sep-16 20:29N 27°55' W 082°27'0 0.0
2017-Sep-16 19:59N 27°55' W 082°27'0 0.0
2017-Sep-16 19:29N 27°55' W 082°27'0 0.0
2017-Sep-16 18:59N 27°55' W 082°27'0 0.0
2017-Sep-16 18:29N 27°55' W 082°27'0 0.0
2017-Sep-16 17:59N 27°55' W 082°27'0 0.0
2017-Sep-16 17:29N 27°55' W 082°27'0 0.0
2017-Sep-16 16:59N 27°55' W 082°27'0 0.0
2017-Sep-16 16:29N 27°55' W 082°27'0 0.0
2017-Sep-16 15:59N 27°55' W 082°27'0 0.0
2017-Sep-16 15:29N 27°55' W 082°27'0 0.5
2017-Sep-16 15:00N 27°55' W 082°27'4 7.9
2017-Sep-16 14:30N 27°51' W 082°27'510.0
2017-Sep-16 14:00N 27°47' W 082°31'611.5
2017-Sep-16 13:30N 27°42' W 082°33'812.1
2017-Sep-16 12:53N 27°37' W 082°40'6613.6
2017-Sep-16 08:00N 27°30' W 083°54'   050 / 131014.010.8 26.024.9
2017-Sep-12 13:10N 30°01' W 090°43'210.9
2017-Sep-12 13:00N 30°02' W 090°41'4 8.8
2017-Sep-12 12:30N 30°03' W 090°36'26 7.9
2017-Sep-12 09:15N 29°55' W 090°08'  
Track history (hours):
 
Tides and Currents Weather Stations Pressure Air Temp Water Temp Dewpoint Dewpoint Depression Visibility Wind Speed Wind Dir Waves Ship Positions

Overseas Anacortes

Owner: ASC Leasing IX, Inc., Philadelphia, PA. More information available from US FCC via Universal Licensing System and Coast Guard Vessel Documentation Center.

Last reported at 2017-Sep-21 17:30 UTC. Time now 2017-Sep-21 17:42 UTC.
Position N 26°06' W 080°07'.

Length 182 m; draft 10.3 m.

Type: Tanker. MMSI: 366539000.

Date/timePositionNaut miles runAvg speedWind from/ knotsBaromVisibWave heightAir tempDewpointWater temp
2017-Sep-21 17:30N 26°06' W 080°07'0 0.0
2017-Sep-21 17:00N 26°06' W 080°07'0 0.0
2017-Sep-21 16:30N 26°06' W 080°07'0 0.0
2017-Sep-21 16:00N 26°06' W 080°07'0 0.0
2017-Sep-21 15:30N 26°06' W 080°07'0 0.0
2017-Sep-21 14:51N 26°06' W 080°07'0 0.0
2017-Sep-21 14:21N 26°06' W 080°07'0 0.0
2017-Sep-21 13:51N 26°06' W 080°07'0 0.0
2017-Sep-21 13:24N 26°06' W 080°07'0 0.0
2017-Sep-21 12:54N 26°06' W 080°07'0 0.0
2017-Sep-21 12:24N 26°06' W 080°07'0 0.0
2017-Sep-21 11:54N 26°06' W 080°07'0 0.0
2017-Sep-21 11:24N 26°06' W 080°07'0 0.0
2017-Sep-21 10:51N 26°06' W 080°07'0 0.0
2017-Sep-21 10:27N 26°06' W 080°07'0 0.0
2017-Sep-21 09:57N 26°06' W 080°07'0 0.0
2017-Sep-21 09:27N 26°06' W 080°07'0 0.0
2017-Sep-21 08:57N 26°06' W 080°07'0 0.0
2017-Sep-21 08:27N 26°06' W 080°07'0 0.0
2017-Sep-21 07:57N 26°06' W 080°07'0 0.0
2017-Sep-21 07:30N 26°06' W 080°07'0 0.0
2017-Sep-21 07:00N 26°06' W 080°07'0 0.0
2017-Sep-21 06:30N 26°06' W 080°07'0 0.0
2017-Sep-21 06:00N 26°06' W 080°07'0 0.0
2017-Sep-21 05:30N 26°06' W 080°07'0 0.0
2017-Sep-21 05:00N 26°06' W 080°07'0 0.0
2017-Sep-21 04:30N 26°06' W 080°07'0 0.0
2017-Sep-21 04:00N 26°06' W 080°07'0 0.0
2017-Sep-21 03:30N 26°06' W 080°07'0 0.0
2017-Sep-21 03:00N 26°06' W 080°07'0 0.0
2017-Sep-21 02:30N 26°06' W 080°07'0 0.0
2017-Sep-21 02:00N 26°06' W 080°07'0 0.0
2017-Sep-21 01:30N 26°06' W 080°07'0 0.0
2017-Sep-21 01:00N 26°06' W 080°07'0 0.0
2017-Sep-21 00:28N 26°06' W 080°07'1 2.5
2017-Sep-21 00:00N 26°06' W 080°06'3 7.0
2017-Sep-20 23:30N 26°04' W 080°03'1 2.1
2017-Sep-20 23:00N 26°03' W 080°02'1 1.4
2017-Sep-20 22:30N 26°02' W 080°02'1 1.9
2017-Sep-20 22:00N 26°02' W 080°02'1 2.3
2017-Sep-20 21:30N 26°00' W 080°01'1 2.7
2017-Sep-20 21:00N 26°02' W 080°01'1 2.0
2017-Sep-20 20:30N 26°03' W 080°01'1 2.1
2017-Sep-20 20:00N 26°02' W 080°01'1 2.2
2017-Sep-20 19:30N 26°01' W 080°02'0 0.9
2017-Sep-20 19:00N 26°00' W 080°02'3 5.6
2017-Sep-20 18:30N 26°02' W 079°59'0 0.6
2017-Sep-20 18:00N 26°02' W 079°59'0 1.0
2017-Sep-20 17:30N 26°02' W 079°59'0 0.8
2017-Sep-20 17:00N 26°01' W 079°60'0 0.7
2017-Sep-20 16:30N 26°01' W 080°00'0 0.5
2017-Sep-20 16:00N 26°01' W 080°00'0 0.6
2017-Sep-20 15:30N 26°01' W 080°00'1 2.4
2017-Sep-20 15:00N 25°60' W 080°00'1 1.1
2017-Sep-20 14:00N 25°59' W 080°01'0 0.9
2017-Sep-20 13:30N 25°59' W 080°01'0 0.7
2017-Sep-20 13:00N 25°59' W 080°01'0 0.6
2017-Sep-20 12:30N 25°59' W 080°02'0 0.8
2017-Sep-20 12:00N 25°59' W 080°01'2 4.7
2017-Sep-20 11:30N 25°57' W 079°60'1 1.1
2017-Sep-20 11:00N 25°57' W 080°00'1 1.0
2017-Sep-20 10:30N 25°57' W 080°01'1 1.2
2017-Sep-20 10:00N 25°58' W 080°01'1 1.4
2017-Sep-20 09:30N 25°59' W 080°01'1 1.4
2017-Sep-20 09:00N 25°59' W 080°00'2 4.4
2017-Sep-20 08:30N 25°57' W 080°00'3 5.1
2017-Sep-20 08:00N 25°54' W 079°60'1 1.1
2017-Sep-20 07:30N 25°55' W 080°00'1 1.0
2017-Sep-20 07:00N 25°55' W 080°01'1 1.3
2017-Sep-20 06:30N 25°56' W 080°01'1 1.5
2017-Sep-20 06:00N 25°57' W 080°01'1 1.2
2017-Sep-20 05:30N 25°57' W 080°02'1 1.0
2017-Sep-20 05:00N 25°58' W 080°02'0 0.5
2017-Sep-20 04:30N 25°58' W 080°02'1 1.6
2017-Sep-20 04:00N 25°59' W 080°02'1 1.6
2017-Sep-20 03:30N 25°59' W 080°02'1 1.4
2017-Sep-20 03:00N 26°00' W 080°02'1 1.3
2017-Sep-20 02:30N 26°01' W 080°02'1 1.3
2017-Sep-20 02:00N 26°01' W 080°02'0 0.7
2017-Sep-20 01:30N 26°01' W 080°02'2 3.6
2017-Sep-20 01:00N 25°59' W 080°02'2 3.7
2017-Sep-20 00:30N 25°57' W 080°02'2 3.5
2017-Sep-20 00:00N 25°56' W 080°02'1 1.1
2017-Sep-19 23:30N 25°55' W 080°02'0 1.0
2017-Sep-19 23:00N 25°55' W 080°02'1 1.0
2017-Sep-19 22:30N 25°56' W 080°01'0 1.0
2017-Sep-19 22:00N 25°56' W 080°01'0 0.8
2017-Sep-19 21:30N 25°57' W 080°01'1 1.7
2017-Sep-19 21:00N 25°56' W 080°01'2 4.6
2017-Sep-19 20:30N 25°54' W 080°02'1 1.3
2017-Sep-19 20:00N 25°54' W 080°01'1 1.3
2017-Sep-19 19:30N 25°55' W 080°01'1 1.3
2017-Sep-19 19:00N 25°56' W 080°01'1 1.2
2017-Sep-19 18:30N 25°56' W 080°01'0 0.9
2017-Sep-19 18:00N 25°57' W 080°01'0 0.2
2017-Sep-19 17:30N 25°57' W 080°01'1 2.4
2017-Sep-19 17:00N 25°56' W 080°02'3 6.6
2017-Sep-19 16:30N 25°53' W 080°03'1 1.2
2017-Sep-19 16:00N 25°52' W 080°02'0 0.6
2017-Sep-19 15:30N 25°53' W 080°02'0 0.6
2017-Sep-19 15:00N 25°53' W 080°02'1 1.2
2017-Sep-19 14:30N 25°53' W 080°02'1 1.2
2017-Sep-19 14:00N 25°54' W 080°02'1 1.2
2017-Sep-19 13:30N 25°55' W 080°02'1 1.2
2017-Sep-19 13:00N 25°55' W 080°02'1 1.5
2017-Sep-19 12:30N 25°56' W 080°02'0 0.3
2017-Sep-19 12:00N 25°56' W 080°02'0 0.5
2017-Sep-19 11:30N 25°56' W 080°02'0 0.6
2017-Sep-19 11:00N 25°56' W 080°01'0 0.4
2017-Sep-19 10:30N 25°56' W 080°01'1 1.9
2017-Sep-19 10:00N 25°56' W 080°02'1 1.1
2017-Sep-19 09:30N 25°56' W 080°03'0 0.9
2017-Sep-19 09:00N 25°56' W 080°02'1 1.0
2017-Sep-19 08:30N 25°55' W 080°02'1 1.0
2017-Sep-19 08:00N 25°55' W 080°01'0 0.9
2017-Sep-19 07:30N 25°55' W 080°01'0 0.7
2017-Sep-19 07:00N 25°55' W 080°02'3 6.2
2017-Sep-19 06:30N 25°58' W 080°02'2 4.0
2017-Sep-19 06:00N 26°00' W 080°02'0 0.7
2017-Sep-19 05:30N 25°60' W 080°02'0 0.9
2017-Sep-19 05:00N 25°59' W 080°02'0 0.8
2017-Sep-19 04:30N 25°59' W 080°02'0 0.7
2017-Sep-19 04:00N 25°59' W 080°02'1 1.1
2017-Sep-19 03:30N 25°58' W 080°02'1 1.7
2017-Sep-19 03:00N 25°57' W 080°01'1 2.3
2017-Sep-19 02:30N 25°56' W 080°01'0 0.1
2017-Sep-19 02:00N 25°56' W 080°01'0 0.2
2017-Sep-19 01:30N 25°56' W 080°01'0 0.3
2017-Sep-19 01:00N 25°56' W 080°02'0 0.5
2017-Sep-19 00:30N 25°56' W 080°02'1 1.2
2017-Sep-19 00:00N 25°56' W 080°02'0 0.4
2017-Sep-18 23:30N 25°56' W 080°03'1 1.0
2017-Sep-18 23:00N 25°55' W 080°03'1 1.0
2017-Sep-18 22:30N 25°55' W 080°03'1 1.1
2017-Sep-18 22:00N 25°54' W 080°02'1 1.3
2017-Sep-18 21:30N 25°54' W 080°02'3 5.3
2017-Sep-18 21:00N 25°56' W 079°60'0 0.5
2017-Sep-18 20:30N 25°56' W 080°00'1 1.2
2017-Sep-18 20:00N 25°56' W 080°01'0 0.7
2017-Sep-18 19:30N 25°56' W 080°01'510.6
2017-Sep-18 19:00N 25°53' W 079°56'815.4
2017-Sep-18 18:30N 25°45' W 079°55'816.0
2017-Sep-18 18:00N 25°37' W 079°56'816.3
2017-Sep-18 17:30N 25°29' W 079°57'916.2
2017-Sep-18 16:58N 25°21' W 079°58'4015.7
2017-Sep-18 14:27N 24°46' W 080°19'717.2
2017-Sep-18 14:01N 24°40' W 080°24'816.6
2017-Sep-18 13:31N 24°34' W 080°30'816.9
2017-Sep-18 13:01N 24°28' W 080°37'11616.5
2017-Sep-18 06:00N 24°06' W 082°42'21111.6 030 / 161013.010.8 28.824.8
2017-Sep-17 11:44N 27°37' W 082°40'311.2
2017-Sep-17 11:28N 27°39' W 082°37'511.3
2017-Sep-17 11:00N 27°43' W 082°33'510.9
2017-Sep-17 10:30N 27°47' W 082°30'510.3
2017-Sep-17 10:00N 27°52' W 082°27'3 6.5
2017-Sep-17 09:30N 27°55' W 082°27'0 0.5
2017-Sep-17 08:59N 27°55' W 082°27'0 0.0
2017-Sep-17 08:29N 27°55' W 082°27'0 0.0
2017-Sep-17 07:59N 27°55' W 082°27'0 0.0
2017-Sep-17 07:29N 27°55' W 082°27'0 0.0
2017-Sep-17 06:59N 27°55' W 082°27'0 0.0
2017-Sep-17 06:29N 27°55' W 082°27'0 0.0
2017-Sep-17 05:59N 27°55' W 082°27'0 0.0
2017-Sep-17 05:29N 27°55' W 082°27'0 0.0
2017-Sep-17 04:59N 27°55' W 082°27'0 0.0
2017-Sep-17 04:29N 27°55' W 082°27'0 0.0
2017-Sep-17 03:59N 27°55' W 082°27'0 0.0
2017-Sep-17 03:29N 27°55' W 082°27'0 0.0
2017-Sep-17 02:59N 27°55' W 082°27'0 0.0
2017-Sep-17 02:29N 27°55' W 082°27'0 0.0
2017-Sep-17 01:59N 27°55' W 082°27'0 0.0
2017-Sep-17 01:29N 27°55' W 082°27'0 0.0
2017-Sep-17 00:59N 27°55' W 082°27'0 0.0
2017-Sep-17 00:29N 27°55' W 082°27'0 0.0
2017-Sep-16 23:59N 27°55' W 082°27'0 0.0
2017-Sep-16 23:29N 27°55' W 082°27'0 0.0
2017-Sep-16 22:59N 27°55' W 082°27'0 0.0
2017-Sep-16 22:26N 27°55' W 082°27'0 0.0
2017-Sep-16 21:59N 27°55' W 082°27'0 0.0
2017-Sep-16 21:29N 27°55' W 082°27'0 0.0
2017-Sep-16 20:59N 27°55' W 082°27'0 0.0
2017-Sep-16 20:29N 27°55' W 082°27'0 0.0
2017-Sep-16 19:59N 27°55' W 082°27'0 0.0
2017-Sep-16 19:29N 27°55' W 082°27'0 0.0
2017-Sep-16 18:59N 27°55' W 082°27'0 0.0
2017-Sep-16 18:29N 27°55' W 082°27'0 0.0
2017-Sep-16 17:59N 27°55' W 082°27'0 0.0
2017-Sep-16 17:29N 27°55' W 082°27'0 0.0
2017-Sep-16 16:59N 27°55' W 082°27'0 0.0
2017-Sep-16 16:29N 27°55' W 082°27'0 0.0
2017-Sep-16 15:59N 27°55' W 082°27'0 0.0
2017-Sep-16 15:29N 27°55' W 082°27'0 0.5
2017-Sep-16 15:00N 27°55' W 082°27'4 7.9
2017-Sep-16 14:30N 27°51' W 082°27'510.0
2017-Sep-16 14:00N 27°47' W 082°31'611.5
2017-Sep-16 13:30N 27°42' W 082°33'812.1
2017-Sep-16 12:53N 27°37' W 082°40'6613.6
2017-Sep-16 08:00N 27°30' W 083°54'   050 / 131014.010.8 26.024.9
2017-Sep-12 13:10N 30°01' W 090°43'210.9
2017-Sep-12 13:00N 30°02' W 090°41'4 8.8
2017-Sep-12 12:30N 30°03' W 090°36'26 7.9
2017-Sep-12 09:15N 29°55' W 090°08'  

Dump ship's entire track history